CheckWX is a tool to help pilots better visualize weather data.  It is not intended as a substitute for an official pre-flight weather briefing.

19:21:56 UTC

DAAP METAR
Illizi Takhamalt Airport
Illizi, Algeria
Current

22 mins ago

DAAP 191900Z 09009KT CAVOK 21/M04 Q1014
Observed
Feb-19 @ 19:00 UTC
Wind
  • 090° at 9 KTS
Visibility
10,000+ meters
Flight Rules
VFR
Cloud Levels
  • Clear skies
Temperature
21°C / 70°F
Dewpoint
-4°C / 25°F
Humidity
18%
Altimeter
29.94" Hg
Pressure
1013.92 hPa
Previous

1 hour ago

DAAP 191800Z 07006KT CAVOK 23/M05 Q1013
Observed
Feb-19 @ 18:00 UTC
Wind
  • 070° at 6 KTS
Visibility
10,000+ meters
Flight Rules
VFR
Cloud Levels
  • Clear skies
Temperature
23°C / 73°F
Dewpoint
-5°C / 23°F
Humidity
15%
Altimeter
29.91" Hg
Pressure
1012.92 hPa
Previous

2 hours ago

DAAP 191700Z 09004KT CAVOK 26/M06 Q1013
Observed
Feb-19 @ 17:00 UTC
Wind
  • 090° at 4 KTS
Visibility
10,000+ meters
Flight Rules
VFR
Cloud Levels
  • Clear skies
Temperature
26°C / 79°F
Dewpoint
-6°C / 21°F
Humidity
12%
Altimeter
29.91" Hg
Pressure
1012.92 hPa